sensor_id;sensor_type;location;lat;lon;timestamp;temperature;humidity
65058;HTU21D;51644;51.068;5.860;2022-10-19T00:00:47;11.20;86.47
65058;HTU21D;51644;51.068;5.860;2022-10-19T00:01:45;11.22;86.49
65058;HTU21D;51644;51.068;5.860;2022-10-19T00:02:44;11.22;86.53
65058;HTU21D;51644;51.068;5.860;2022-10-19T00:03:45;11.19;86.63
65058;HTU21D;51644;51.068;5.860;2022-10-19T00:04:45;11.20;86.70
65058;HTU21D;51644;51.068;5.860;2022-10-19T00:05:44;11.19;86.73
65058;HTU21D;51644;51.068;5.860;2022-10-19T00:06:44;11.20;86.70
65058;HTU21D;51644;51.068;5.860;2022-10-19T00:07:42;11.18;86.67
65058;HTU21D;51644;51.068;5.860;2022-10-19T00:08:41;11.16;86.78
65058;HTU21D;51644;51.068;5.860;2022-10-19T00:09:42;11.16;86.75
65058;HTU21D;51644;51.068;5.860;2022-10-19T00:10:41;11.14;86.78
65058;HTU21D;51644;51.068;5.860;2022-10-19T00:11:42;11.13;86.85
65058;HTU21D;51644;51.068;5.860;2022-10-19T00:12:41;11.12;86.90
65058;HTU21D;51644;51.068;5.860;2022-10-19T00:13:40;11.10;86.93
65058;HTU21D;51644;51.068;5.860;2022-10-19T00:14:38;11.10;86.93
65058;HTU21D;51644;51.068;5.860;2022-10-19T00:15:38;11.09;86.92
65058;HTU21D;51644;51.068;5.860;2022-10-19T00:16:37;11.09;86.84
65058;HTU21D;51644;51.068;5.860;2022-10-19T00:17:36;11.09;86.82
65058;HTU21D;51644;51.068;5.860;2022-10-19T00:18:34;11.09;86.77
65058;HTU21D;51644;51.068;5.860;2022-10-19T00:19:33;11.08;86.74
65058;HTU21D;51644;51.068;5.860;2022-10-19T00:20:32;11.04;86.68
65058;HTU21D;51644;51.068;5.860;2022-10-19T00:21:32;11.03;86.64
65058;HTU21D;51644;51.068;5.860;2022-10-19T00:22:30;11.00;86.62
65058;HTU21D;51644;51.068;5.860;2022-10-19T00:23:29;10.97;86.64
65058;HTU21D;51644;51.068;5.860;2022-10-19T00:24:29;10.96;86.65
65058;HTU21D;51644;51.068;5.860;2022-10-19T00:25:28;10.93;86.70
65058;HTU21D;51644;51.068;5.860;2022-10-19T00:26:26;10.93;86.74
65058;HTU21D;51644;51.068;5.860;2022-10-19T00:27:25;10.92;86.71
65058;HTU21D;51644;51.068;5.860;2022-10-19T00:28:25;10.89;86.74
65058;HTU21D;51644;51.068;5.860;2022-10-19T00:29:24;10.90;86.71
65058;HTU21D;51644;51.068;5.860;2022-10-19T00:30:22;10.92;86.67
65058;HTU21D;51644;51.068;5.860;2022-10-19T00:31:21;10.93;86.58
65058;HTU21D;51644;51.068;5.860;2022-10-19T00:32:21;10.92;86.53
65058;HTU21D;51644;51.068;5.860;2022-10-19T00:33:19;10.90;86.52
65058;HTU21D;51644;51.068;5.860;2022-10-19T00:34:19;10.90;86.55
65058;HTU21D;51644;51.068;5.860;2022-10-19T00:35:18;10.90;86.53
65058;HTU21D;51644;51.068;5.860;2022-10-19T00:36:29;10.90;86.49
65058;HTU21D;51644;51.068;5.860;2022-10-19T00:37:29;10.89;86.49
65058;HTU21D;51644;51.068;5.860;2022-10-19T00:38:27;10.88;86.55
65058;HTU21D;51644;51.068;5.860;2022-10-19T00:39:26;10.87;86.62
65058;HTU21D;51644;51.068;5.860;2022-10-19T00:40:24;10.86;86.64
65058;HTU21D;51644;51.068;5.860;2022-10-19T00:41:27;10.87;86.67
65058;HTU21D;51644;51.068;5.860;2022-10-19T00:42:26;10.85;86.62
65058;HTU21D;51644;51.068;5.860;2022-10-19T00:43:27;10.85;86.58
65058;HTU21D;51644;51.068;5.860;2022-10-19T00:45:26;10.83;86.63
65058;HTU21D;51644;51.068;5.860;2022-10-19T00:46:30;10.85;86.66
65058;HTU21D;51644;51.068;5.860;2022-10-19T00:47:30;10.85;86.70
65058;HTU21D;51644;51.068;5.860;2022-10-19T00:48:31;10.84;86.77
65058;HTU21D;51644;51.068;5.860;2022-10-19T00:49:34;10.84;86.82
65058;HTU21D;51644;51.068;5.860;2022-10-19T00:50:33;10.84;86.84
65058;HTU21D;51644;51.068;5.860;2022-10-19T00:51:35;10.83;86.83
65058;HTU21D;51644;51.068;5.860;2022-10-19T00:52:37;10.82;86.82
65058;HTU21D;51644;51.068;5.860;2022-10-19T00:53:35;10.82;86.80
65058;HTU21D;51644;51.068;5.860;2022-10-19T00:54:37;10.82;86.83
65058;HTU21D;51644;51.068;5.860;2022-10-19T00:55:39;10.83;86.83
65058;HTU21D;51644;51.068;5.860;2022-10-19T00:56:42;10.85;86.80
65058;HTU21D;51644;51.068;5.860;2022-10-19T00:57:41;10.86;86.78
65058;HTU21D;51644;51.068;5.860;2022-10-19T00:58:42;10.85;86.80
65058;HTU21D;51644;51.068;5.860;2022-10-19T00:59:43;10.86;86.81
65058;HTU21D;51644;51.068;5.860;2022-10-19T01:00:42;10.85;86.79
65058;HTU21D;51644;51.068;5.860;2022-10-19T01:01:43;10.83;86.80
65058;HTU21D;51644;51.068;5.860;2022-10-19T01:02:42;10.83;86.83
65058;HTU21D;51644;51.068;5.860;2022-10-19T01:03:41;10.80;86.83
65058;HTU21D;51644;51.068;5.860;2022-10-19T01:04:45;10.79;86.82
65058;HTU21D;51644;51.068;5.860;2022-10-19T01:05:44;10.75;86.93
65058;HTU21D;51644;51.068;5.860;2022-10-19T01:06:43;10.75;86.97
65058;HTU21D;51644;51.068;5.860;2022-10-19T01:07:42;10.74;86.99
65058;HTU21D;51644;51.068;5.860;2022-10-19T01:08:41;10.73;87.00
65058;HTU21D;51644;51.068;5.860;2022-10-19T01:09:40;10.73;87.00
65058;HTU21D;51644;51.068;5.860;2022-10-19T01:10:50;10.70;86.99
65058;HTU21D;51644;51.068;5.860;2022-10-19T01:16:17;10.67;87.23
65058;HTU21D;51644;51.068;5.860;2022-10-19T01:18:44;10.63;87.18
65058;HTU21D;51644;51.068;5.860;2022-10-19T01:22:37;10.59;87.22
65058;HTU21D;51644;51.068;5.860;2022-10-19T01:30:01;10.63;87.10
65058;HTU21D;51644;51.068;5.860;2022-10-19T01:35:27;10.60;87.49
65058;HTU21D;51644;51.068;5.860;2022-10-19T01:41:47;10.59;87.73
65058;HTU21D;51644;51.068;5.860;2022-10-19T01:42:57;10.58;87.74
65058;HTU21D;51644;51.068;5.860;2022-10-19T01:44:13;10.57;87.74
65058;HTU21D;51644;51.068;5.860;2022-10-19T01:45:33;10.55;87.77
65058;HTU21D;51644;51.068;5.860;2022-10-19T01:46:39;10.56;87.82
65058;HTU21D;51644;51.068;5.860;2022-10-19T01:47:50;10.54;87.83
65058;HTU21D;51644;51.068;5.860;2022-10-19T01:49:20;10.55;87.90
65058;HTU21D;51644;51.068;5.860;2022-10-19T01:50:23;10.53;87.89
65058;HTU21D;51644;51.068;5.860;2022-10-19T01:51:41;10.54;87.93
65058;HTU21D;51644;51.068;5.860;2022-10-19T01:52:42;10.52;87.97
65058;HTU21D;51644;51.068;5.860;2022-10-19T01:53:48;10.52;88.00
65058;HTU21D;51644;51.068;5.860;2022-10-19T01:54:52;10.51;88.08
65058;HTU21D;51644;51.068;5.860;2022-10-19T01:55:54;10.49;88.10
65058;HTU21D;51644;51.068;5.860;2022-10-19T01:56:57;10.46;88.16
65058;HTU21D;51644;51.068;5.860;2022-10-19T01:58:03;10.46;88.22
65058;HTU21D;51644;51.068;5.860;2022-10-19T01:59:07;10.46;88.26
65058;HTU21D;51644;51.068;5.860;2022-10-19T02:00:09;10.44;88.29
65058;HTU21D;51644;51.068;5.860;2022-10-19T02:01:15;10.44;88.36
65058;HTU21D;51644;51.068;5.860;2022-10-19T02:02:22;10.44;88.40
65058;HTU21D;51644;51.068;5.860;2022-10-19T02:03:24;10.43;88.44
65058;HTU21D;51644;51.068;5.860;2022-10-19T02:04:24;10.41;88.50
65058;HTU21D;51644;51.068;5.860;2022-10-19T02:05:29;10.40;88.52
65058;HTU21D;51644;51.068;5.860;2022-10-19T02:06:29;10.39;88.59
65058;HTU21D;51644;51.068;5.860;2022-10-19T02:07:29;10.39;88.67
65058;HTU21D;51644;51.068;5.860;2022-10-19T02:08:33;10.37;88.70
65058;HTU21D;51644;51.068;5.860;2022-10-19T02:09:32;10.37;88.72
65058;HTU21D;51644;51.068;5.860;2022-10-19T02:10:36;10.36;88.74
65058;HTU21D;51644;51.068;5.860;2022-10-19T02:11:36;10.36;88.76
65058;HTU21D;51644;51.068;5.860;2022-10-19T02:12:37;10.36;88.76
65058;HTU21D;51644;51.068;5.860;2022-10-19T02:13:38;10.35;88.79
65058;HTU21D;51644;51.068;5.860;2022-10-19T02:14:45;10.35;88.84
65058;HTU21D;51644;51.068;5.860;2022-10-19T02:15:48;10.36;88.83
65058;HTU21D;51644;51.068;5.860;2022-10-19T02:17:00;10.35;88.83
65058;HTU21D;51644;51.068;5.860;2022-10-19T02:18:01;10.34;88.82
65058;HTU21D;51644;51.068;5.860;2022-10-19T02:19:02;10.34;88.78
65058;HTU21D;51644;51.068;5.860;2022-10-19T02:20:04;10.34;88.81
65058;HTU21D;51644;51.068;5.860;2022-10-19T02:21:04;10.29;88.75
65058;HTU21D;51644;51.068;5.860;2022-10-19T02:22:03;10.28;88.90
65058;HTU21D;51644;51.068;5.860;2022-10-19T02:23:03;10.29;88.85
65058;HTU21D;51644;51.068;5.860;2022-10-19T02:24:02;10.28;88.83
65058;HTU21D;51644;51.068;5.860;2022-10-19T02:25:01;10.28;88.83
65058;HTU21D;51644;51.068;5.860;2022-10-19T02:26:01;10.28;88.82
65058;HTU21D;51644;51.068;5.860;2022-10-19T02:27:01;10.27;88.78
65058;HTU21D;51644;51.068;5.860;2022-10-19T02:28:03;10.27;88.76
65058;HTU21D;51644;51.068;5.860;2022-10-19T02:29:02;10.26;88.75
65058;HTU21D;51644;51.068;5.860;2022-10-19T02:30:02;10.25;88.73
65058;HTU21D;51644;51.068;5.860;2022-10-19T02:31:01;10.24;88.73
65058;HTU21D;51644;51.068;5.860;2022-10-19T02:32:00;10.23;88.72
65058;HTU21D;51644;51.068;5.860;2022-10-19T02:32:59;10.21;88.72
65058;HTU21D;51644;51.068;5.860;2022-10-19T02:33:58;10.21;88.70
65058;HTU21D;51644;51.068;5.860;2022-10-19T02:34:57;10.21;88.67
65058;HTU21D;51644;51.068;5.860;2022-10-19T02:35:56;10.18;88.67
65058;HTU21D;51644;51.068;5.860;2022-10-19T02:36:56;10.18;88.71
65058;HTU21D;51644;51.068;5.860;2022-10-19T02:38:08;10.16;88.66
65058;HTU21D;51644;51.068;5.860;2022-10-19T02:39:08;10.19;88.64
65058;HTU21D;51644;51.068;5.860;2022-10-19T02:40:07;10.16;88.67
65058;HTU21D;51644;51.068;5.860;2022-10-19T02:42:10;10.16;88.73
65058;HTU21D;51644;51.068;5.860;2022-10-19T02:42:59;10.15;88.82
65058;HTU21D;51644;51.068;5.860;2022-10-19T02:44:22;10.16;88.82
65058;HTU21D;51644;51.068;5.860;2022-10-19T02:45:30;10.16;88.80
65058;HTU21D;51644;51.068;5.860;2022-10-19T02:46:36;10.15;88.83
65058;HTU21D;51644;51.068;5.860;2022-10-19T02:47:44;10.15;88.83
65058;HTU21D;51644;51.068;5.860;2022-10-19T02:48:45;10.14;88.84
65058;HTU21D;51644;51.068;5.860;2022-10-19T02:49:47;10.13;88.83
65058;HTU21D;51644;51.068;5.860;2022-10-19T02:50:46;10.12;88.79
65058;HTU21D;51644;51.068;5.860;2022-10-19T02:52:03;10.11;88.92
65058;HTU21D;51644;51.068;5.860;2022-10-19T02:53:02;10.10;88.96
65058;HTU21D;51644;51.068;5.860;2022-10-19T02:54:03;10.12;88.92
65058;HTU21D;51644;51.068;5.860;2022-10-19T02:55:02;10.11;88.87
65058;HTU21D;51644;51.068;5.860;2022-10-19T02:56:01;10.10;88.89
65058;HTU21D;51644;51.068;5.860;2022-10-19T02:57:00;10.11;88.87
65058;HTU21D;51644;51.068;5.860;2022-10-19T02:58:00;10.09;88.85
65058;HTU21D;51644;51.068;5.860;2022-10-19T02:58:59;10.10;88.79
65058;HTU21D;51644;51.068;5.860;2022-10-19T02:59:58;10.08;88.80
65058;HTU21D;51644;51.068;5.860;2022-10-19T03:00:57;10.09;88.83
65058;HTU21D;51644;51.068;5.860;2022-10-19T03:01:55;10.07;88.87
65058;HTU21D;51644;51.068;5.860;2022-10-19T03:02:54;10.07;88.83
65058;HTU21D;51644;51.068;5.860;2022-10-19T03:03:52;10.08;88.82
65058;HTU21D;51644;51.068;5.860;2022-10-19T03:04:51;10.08;88.80
65058;HTU21D;51644;51.068;5.860;2022-10-19T03:05:49;10.07;88.78
65058;HTU21D;51644;51.068;5.860;2022-10-19T03:06:48;10.07;88.82
65058;HTU21D;51644;51.068;5.860;2022-10-19T03:07:46;10.07;88.79
65058;HTU21D;51644;51.068;5.860;2022-10-19T03:08:45;10.07;88.78
65058;HTU21D;51644;51.068;5.860;2022-10-19T03:09:47;10.06;88.77
65058;HTU21D;51644;51.068;5.860;2022-10-19T03:10:46;10.06;88.79
65058;HTU21D;51644;51.068;5.860;2022-10-19T03:11:44;10.06;88.81
65058;HTU21D;51644;51.068;5.860;2022-10-19T03:12:43;10.07;88.81
65058;HTU21D;51644;51.068;5.860;2022-10-19T03:13:41;10.05;88.84
65058;HTU21D;51644;51.068;5.860;2022-10-19T03:14:41;10.03;88.86
65058;HTU21D;51644;51.068;5.860;2022-10-19T03:15:40;10.03;88.92
65058;HTU21D;51644;51.068;5.860;2022-10-19T03:16:38;10.03;88.96
65058;HTU21D;51644;51.068;5.860;2022-10-19T03:17:37;10.01;89.02
65058;HTU21D;51644;51.068;5.860;2022-10-19T03:18:36;10.00;89.02
65058;HTU21D;51644;51.068;5.860;2022-10-19T03:19:36;10.00;89.03
65058;HTU21D;51644;51.068;5.860;2022-10-19T03:20:34;10.00;89.02
65058;HTU21D;51644;51.068;5.860;2022-10-19T03:21:33;10.00;89.05
65058;HTU21D;51644;51.068;5.860;2022-10-19T03:22:32;9.99;89.09
65058;HTU21D;51644;51.068;5.860;2022-10-19T03:23:34;10.00;89.12
65058;HTU21D;51644;51.068;5.860;2022-10-19T03:24:33;9.98;89.17
65058;HTU21D;51644;51.068;5.860;2022-10-19T03:25:32;9.97;89.18
65058;HTU21D;51644;51.068;5.860;2022-10-19T03:26:30;9.99;89.15
65058;HTU21D;51644;51.068;5.860;2022-10-19T03:27:29;9.98;89.15
65058;HTU21D;51644;51.068;5.860;2022-10-19T03:28:28;9.97;89.12
65058;HTU21D;51644;51.068;5.860;2022-10-19T03:29:27;9.94;89.12
65058;HTU21D;51644;51.068;5.860;2022-10-19T03:30:25;9.94;89.12
65058;HTU21D;51644;51.068;5.860;2022-10-19T03:31:24;9.93;89.15
65058;HTU21D;51644;51.068;5.860;2022-10-19T03:32:24;9.92;89.18
65058;HTU21D;51644;51.068;5.860;2022-10-19T03:33:23;9.90;89.21
65058;HTU21D;51644;51.068;5.860;2022-10-19T03:34:21;9.90;89.18
65058;HTU21D;51644;51.068;5.860;2022-10-19T03:35:20;9.88;89.15
65058;HTU21D;51644;51.068;5.860;2022-10-19T03:36:22;9.86;89.10
65058;HTU21D;51644;51.068;5.860;2022-10-19T03:37:21;9.83;89.12
65058;HTU21D;51644;51.068;5.860;2022-10-19T03:38:20;9.81;89.19
65058;HTU21D;51644;51.068;5.860;2022-10-19T03:39:18;9.77;89.25
65058;HTU21D;51644;51.068;5.860;2022-10-19T03:40:17;9.77;89.34
65058;HTU21D;51644;51.068;5.860;2022-10-19T03:41:15;9.76;89.44
65058;HTU21D;51644;51.068;5.860;2022-10-19T03:42:14;9.75;89.50
65058;HTU21D;51644;51.068;5.860;2022-10-19T03:43:12;9.77;89.47
65058;HTU21D;51644;51.068;5.860;2022-10-19T03:44:11;9.74;89.53
65058;HTU21D;51644;51.068;5.860;2022-10-19T03:45:10;9.75;89.60
65058;HTU21D;51644;51.068;5.860;2022-10-19T03:46:08;9.72;89.63
65058;HTU21D;51644;51.068;5.860;2022-10-19T03:47:07;9.69;89.63
65058;HTU21D;51644;51.068;5.860;2022-10-19T03:48:05;9.69;89.75
65058;HTU21D;51644;51.068;5.860;2022-10-19T03:49:04;9.68;89.79
65058;HTU21D;51644;51.068;5.860;2022-10-19T03:50:03;9.68;89.85
65058;HTU21D;51644;51.068;5.860;2022-10-19T03:51:09;9.68;89.89
65058;HTU21D;51644;51.068;5.860;2022-10-19T03:52:07;9.68;89.92
65058;HTU21D;51644;51.068;5.860;2022-10-19T03:53:07;9.67;89.95
65058;HTU21D;51644;51.068;5.860;2022-10-19T03:54:10;9.68;89.99
65058;HTU21D;51644;51.068;5.860;2022-10-19T03:55:09;9.68;89.90
65058;HTU21D;51644;51.068;5.860;2022-10-19T03:56:16;9.68;89.86
65058;HTU21D;51644;51.068;5.860;2022-10-19T03:57:15;9.68;89.82
65058;HTU21D;51644;51.068;5.860;2022-10-19T03:58:14;9.67;89.77
65058;HTU21D;51644;51.068;5.860;2022-10-19T03:59:13;9.69;89.73
65058;HTU21D;51644;51.068;5.860;2022-10-19T04:00:13;9.68;89.71
65058;HTU21D;51644;51.068;5.860;2022-10-19T04:01:18;9.68;89.67
65058;HTU21D;51644;51.068;5.860;2022-10-19T04:02:17;9.68;89.66
65058;HTU21D;51644;51.068;5.860;2022-10-19T04:03:15;9.68;89.66
65058;HTU21D;51644;51.068;5.860;2022-10-19T04:04:17;9.68;89.62
65058;HTU21D;51644;51.068;5.860;2022-10-19T04:05:16;9.67;89.59
65058;HTU21D;51644;51.068;5.860;2022-10-19T04:06:17;9.67;89.61
65058;HTU21D;51644;51.068;5.860;2022-10-19T04:07:16;9.66;89.62
65058;HTU21D;51644;51.068;5.860;2022-10-19T04:08:15;9.66;89.62
65058;HTU21D;51644;51.068;5.860;2022-10-19T04:09:17;9.64;89.60
65058;HTU21D;51644;51.068;5.860;2022-10-19T04:10:16;9.64;89.63
65058;HTU21D;51644;51.068;5.860;2022-10-19T04:11:20;9.62;89.66
65058;HTU21D;51644;51.068;5.860;2022-10-19T04:12:19;9.61;89.76
65058;HTU21D;51644;51.068;5.860;2022-10-19T04:13:18;9.61;89.78
65058;HTU21D;51644;51.068;5.860;2022-10-19T04:14:18;9.61;89.70
65058;HTU21D;51644;51.068;5.860;2022-10-19T04:15:17;9.61;89.72
65058;HTU21D;51644;51.068;5.860;2022-10-19T04:16:17;9.60;89.64
65058;HTU21D;51644;51.068;5.860;2022-10-19T04:17:19;9.60;89.70
65058;HTU21D;51644;51.068;5.860;2022-10-19T04:18:18;9.59;89.65
65058;HTU21D;51644;51.068;5.860;2022-10-19T04:19:16;9.60;89.68
65058;HTU21D;51644;51.068;5.860;2022-10-19T04:20:15;9.57;89.73
65058;HTU21D;51644;51.068;5.860;2022-10-19T04:21:42;9.57;89.80
65058;HTU21D;51644;51.068;5.860;2022-10-19T04:22:41;9.55;89.87
65058;HTU21D;51644;51.068;5.860;2022-10-19T04:23:40;9.56;89.95
65058;HTU21D;51644;51.068;5.860;2022-10-19T04:24:38;9.54;89.98
65058;HTU21D;51644;51.068;5.860;2022-10-19T04:25:37;9.53;90.02
65058;HTU21D;51644;51.068;5.860;2022-10-19T04:26:43;9.52;90.12
65058;HTU21D;51644;51.068;5.860;2022-10-19T04:27:42;9.49;90.27
65058;HTU21D;51644;51.068;5.860;2022-10-19T04:28:42;9.48;90.36
65058;HTU21D;51644;51.068;5.860;2022-10-19T04:29:40;9.49;90.37
65058;HTU21D;51644;51.068;5.860;2022-10-19T04:30:39;9.50;90.44
65058;HTU21D;51644;51.068;5.860;2022-10-19T04:31:38;9.50;90.45
65058;HTU21D;51644;51.068;5.860;2022-10-19T04:32:37;9.49;90.49
65058;HTU21D;51644;51.068;5.860;2022-10-19T04:33:36;9.50;90.54
65058;HTU21D;51644;51.068;5.860;2022-10-19T04:34:34;9.49;90.59
65058;HTU21D;51644;51.068;5.860;2022-10-19T04:35:33;9.49;90.60
65058;HTU21D;51644;51.068;5.860;2022-10-19T04:36:32;9.50;90.62
65058;HTU21D;51644;51.068;5.860;2022-10-19T04:37:30;9.49;90.60
65058;HTU21D;51644;51.068;5.860;2022-10-19T04:38:29;9.48;90.66
65058;HTU21D;51644;51.068;5.860;2022-10-19T04:39:28;9.49;90.67
65058;HTU21D;51644;51.068;5.860;2022-10-19T04:40:26;9.49;90.69
65058;HTU21D;51644;51.068;5.860;2022-10-19T04:41:25;9.50;90.69
65058;HTU21D;51644;51.068;5.860;2022-10-19T04:42:23;9.51;90.66
65058;HTU21D;51644;51.068;5.860;2022-10-19T04:43:22;9.51;90.60
65058;HTU21D;51644;51.068;5.860;2022-10-19T04:44:20;9.48;90.51
65058;HTU21D;51644;51.068;5.860;2022-10-19T04:45:19;9.47;90.70
65058;HTU21D;51644;51.068;5.860;2022-10-19T04:46:19;9.46;90.68
65058;HTU21D;51644;51.068;5.860;2022-10-19T04:47:17;9.44;90.77
65058;HTU21D;51644;51.068;5.860;2022-10-19T04:48:16;9.44;90.73
65058;HTU21D;51644;51.068;5.860;2022-10-19T04:49:15;9.42;90.79
65058;HTU21D;51644;51.068;5.860;2022-10-19T04:50:13;9.44;90.76
65058;HTU21D;51644;51.068;5.860;2022-10-19T04:51:13;9.44;90.74
65058;HTU21D;51644;51.068;5.860;2022-10-19T04:52:11;9.46;90.75
65058;HTU21D;51644;51.068;5.860;2022-10-19T04:53:10;9.45;90.69
65058;HTU21D;51644;51.068;5.860;2022-10-19T04:54:08;9.44;90.67
65058;HTU21D;51644;51.068;5.860;2022-10-19T04:55:07;9.46;90.66
65058;HTU21D;51644;51.068;5.860;2022-10-19T04:56:10;9.46;90.64
65058;HTU21D;51644;51.068;5.860;2022-10-19T04:57:09;9.46;90.63
65058;HTU21D;51644;51.068;5.860;2022-10-19T04:58:08;9.45;90.63
65058;HTU21D;51644;51.068;5.860;2022-10-19T04:59:06;9.47;90.60
65058;HTU21D;51644;51.068;5.860;2022-10-19T05:00:06;9.46;90.59
65058;HTU21D;51644;51.068;5.860;2022-10-19T05:01:16;9.47;90.57
65058;HTU21D;51644;51.068;5.860;2022-10-19T05:02:15;9.46;90.53
65058;HTU21D;51644;51.068;5.860;2022-10-19T05:03:14;9.46;90.50
65058;HTU21D;51644;51.068;5.860;2022-10-19T05:04:12;9.46;90.47
65058;HTU21D;51644;51.068;5.860;2022-10-19T05:05:13;9.44;90.46
65058;HTU21D;51644;51.068;5.860;2022-10-19T05:06:12;9.41;90.44
65058;HTU21D;51644;51.068;5.860;2022-10-19T05:07:11;9.41;90.47
65058;HTU21D;51644;51.068;5.860;2022-10-19T05:08:10;9.39;90.52
65058;HTU21D;51644;51.068;5.860;2022-10-19T05:09:08;9.38;90.55
65058;HTU21D;51644;51.068;5.860;2022-10-19T05:10:08;9.38;90.57
65058;HTU21D;51644;51.068;5.860;2022-10-19T05:11:10;9.39;90.48
65058;HTU21D;51644;51.068;5.860;2022-10-19T05:12:09;9.38;90.54
65058;HTU21D;51644;51.068;5.860;2022-10-19T05:13:07;9.37;90.56
65058;HTU21D;51644;51.068;5.860;2022-10-19T05:14:06;9.36;90.53
65058;HTU21D;51644;51.068;5.860;2022-10-19T05:15:05;9.34;90.58
65058;HTU21D;51644;51.068;5.860;2022-10-19T05:16:06;9.34;90.58
65058;HTU21D;51644;51.068;5.860;2022-10-19T05:17:04;9.32;90.60
65058;HTU21D;51644;51.068;5.860;2022-10-19T05:18:03;9.31;90.60
65058;HTU21D;51644;51.068;5.860;2022-10-19T05:19:01;9.29;90.77
65058;HTU21D;51644;51.068;5.860;2022-10-19T05:20:01;9.24;90.76
65058;HTU21D;51644;51.068;5.860;2022-10-19T05:21:07;9.21;90.68
65058;HTU21D;51644;51.068;5.860;2022-10-19T05:22:05;9.21;90.89
65058;HTU21D;51644;51.068;5.860;2022-10-19T05:23:04;9.19;90.93
65058;HTU21D;51644;51.068;5.860;2022-10-19T05:24:05;9.18;90.95
65058;HTU21D;51644;51.068;5.860;2022-10-19T05:25:06;9.18;91.00
65058;HTU21D;51644;51.068;5.860;2022-10-19T05:26:13;9.17;90.99
65058;HTU21D;51644;51.068;5.860;2022-10-19T05:27:12;9.15;91.06
65058;HTU21D;51644;51.068;5.860;2022-10-19T05:28:11;9.15;91.02
65058;HTU21D;51644;51.068;5.860;2022-10-19T05:29:11;9.11;90.99
65058;HTU21D;51644;51.068;5.860;2022-10-19T05:30:10;9.10;91.05
65058;HTU21D;51644;51.068;5.860;2022-10-19T05:31:14;9.09;91.06
65058;HTU21D;51644;51.068;5.860;2022-10-19T05:32:13;9.08;91.05
65058;HTU21D;51644;51.068;5.860;2022-10-19T05:33:12;9.07;91.08
65058;HTU21D;51644;51.068;5.860;2022-10-19T05:34:11;9.06;91.11
65058;HTU21D;51644;51.068;5.860;2022-10-19T05:35:09;9.06;91.08
65058;HTU21D;51644;51.068;5.860;2022-10-19T05:36:21;9.02;91.16
65058;HTU21D;51644;51.068;5.860;2022-10-19T05:37:22;8.96;91.28
65058;HTU21D;51644;51.068;5.860;2022-10-19T05:38:22;8.96;91.25
65058;HTU21D;51644;51.068;5.860;2022-10-19T05:39:25;8.97;91.33
65058;HTU21D;51644;51.068;5.860;2022-10-19T05:40:24;8.97;91.31
65058;HTU21D;51644;51.068;5.860;2022-10-19T05:41:24;8.96;91.31
65058;HTU21D;51644;51.068;5.860;2022-10-19T05:42:23;8.96;91.34
65058;HTU21D;51644;51.068;5.860;2022-10-19T05:43:21;8.96;91.34
65058;HTU21D;51644;51.068;5.860;2022-10-19T05:44:22;8.95;91.30
65058;HTU21D;51644;51.068;5.860;2022-10-19T05:45:20;8.94;91.29
65058;HTU21D;51644;51.068;5.860;2022-10-19T05:46:19;8.94;91.31
65058;HTU21D;51644;51.068;5.860;2022-10-19T05:47:18;8.92;91.31
65058;HTU21D;51644;51.068;5.860;2022-10-19T05:48:16;8.91;91.34
65058;HTU21D;51644;51.068;5.860;2022-10-19T05:49:18;8.91;91.35
65058;HTU21D;51644;51.068;5.860;2022-10-19T05:50:16;8.92;91.36
65058;HTU21D;51644;51.068;5.860;2022-10-19T05:51:18;8.92;91.34
65058;HTU21D;51644;51.068;5.860;2022-10-19T05:52:16;8.92;91.37
65058;HTU21D;51644;51.068;5.860;2022-10-19T05:53:15;8.92;91.37
65058;HTU21D;51644;51.068;5.860;2022-10-19T05:54:17;8.91;91.41
65058;HTU21D;51644;51.068;5.860;2022-10-19T05:55:16;8.91;91.45
65058;HTU21D;51644;51.068;5.860;2022-10-19T05:56:20;8.92;91.44
65058;HTU21D;51644;51.068;5.860;2022-10-19T05:57:19;8.91;91.47
65058;HTU21D;51644;51.068;5.860;2022-10-19T05:58:18;8.92;91.47
65058;HTU21D;51644;51.068;5.860;2022-10-19T05:59:19;8.90;91.53
65058;HTU21D;51644;51.068;5.860;2022-10-19T06:00:18;8.91;91.56
65058;HTU21D;51644;51.068;5.860;2022-10-19T06:01:18;8.89;91.63
65058;HTU21D;51644;51.068;5.860;2022-10-19T06:02:17;8.89;91.63
65058;HTU21D;51644;51.068;5.860;2022-10-19T06:03:15;8.89;91.60
65058;HTU21D;51644;51.068;5.860;2022-10-19T06:04:15;8.91;91.56
65058;HTU21D;51644;51.068;5.860;2022-10-19T06:05:13;8.89;91.56
65058;HTU21D;51644;51.068;5.860;2022-10-19T06:06:12;8.89;91.53
65058;HTU21D;51644;51.068;5.860;2022-10-19T06:07:10;8.90;91.56
65058;HTU21D;51644;51.068;5.860;2022-10-19T06:08:09;8.90;91.57
65058;HTU21D;51644;51.068;5.860;2022-10-19T06:09:09;8.90;91.56
65058;HTU21D;51644;51.068;5.860;2022-10-19T06:10:08;8.90;91.55
65058;HTU21D;51644;51.068;5.860;2022-10-19T06:11:26;8.90;91.50
65058;HTU21D;51644;51.068;5.860;2022-10-19T06:12:25;8.89;91.47
65058;HTU21D;51644;51.068;5.860;2022-10-19T06:13:24;8.90;91.43
65058;HTU21D;51644;51.068;5.860;2022-10-19T06:14:25;8.90;91.46
65058;HTU21D;51644;51.068;5.860;2022-10-19T06:15:23;8.88;91.47
65058;HTU21D;51644;51.068;5.860;2022-10-19T06:16:24;8.87;91.51
65058;HTU21D;51644;51.068;5.860;2022-10-19T06:17:23;8.87;91.60
65058;HTU21D;51644;51.068;5.860;2022-10-19T06:18:21;8.85;91.66
65058;HTU21D;51644;51.068;5.860;2022-10-19T06:19:23;8.85;91.68
65058;HTU21D;51644;51.068;5.860;2022-10-19T06:20:21;8.86;91.74
65058;HTU21D;51644;51.068;5.860;2022-10-19T06:21:23;8.83;91.80
65058;HTU21D;51644;51.068;5.860;2022-10-19T06:22:22;8.87;91.80
65058;HTU21D;51644;51.068;5.860;2022-10-19T06:23:20;8.85;91.84
65058;HTU21D;51644;51.068;5.860;2022-10-19T06:24:19;8.86;91.85
65058;HTU21D;51644;51.068;5.860;2022-10-19T06:25:18;8.86;91.89
65058;HTU21D;51644;51.068;5.860;2022-10-19T06:26:16;8.88;91.82
65058;HTU21D;51644;51.068;5.860;2022-10-19T06:27:15;8.88;91.82
65058;HTU21D;51644;51.068;5.860;2022-10-19T06:28:13;8.87;91.82
65058;HTU21D;51644;51.068;5.860;2022-10-19T06:29:12;8.89;91.80
65058;HTU21D;51644;51.068;5.860;2022-10-19T06:30:11;8.90;91.80
65058;HTU21D;51644;51.068;5.860;2022-10-19T06:31:10;8.91;91.82
65058;HTU21D;51644;51.068;5.860;2022-10-19T06:32:10;8.92;91.82
65058;HTU21D;51644;51.068;5.860;2022-10-19T06:33:09;8.93;91.79
65058;HTU21D;51644;51.068;5.860;2022-10-19T06:34:08;8.93;91.78
65058;HTU21D;51644;51.068;5.860;2022-10-19T06:35:06;8.94;91.79
65058;HTU21D;51644;51.068;5.860;2022-10-19T06:36:12;8.95;91.84
65058;HTU21D;51644;51.068;5.860;2022-10-19T06:37:11;9.00;91.77
65058;HTU21D;51644;51.068;5.860;2022-10-19T06:38:10;9.01;91.72
65058;HTU21D;51644;51.068;5.860;2022-10-19T06:39:11;9.02;91.66
65058;HTU21D;51644;51.068;5.860;2022-10-19T06:40:10;9.04;91.60
65058;HTU21D;51644;51.068;5.860;2022-10-19T06:41:09;9.07;91.54
65058;HTU21D;51644;51.068;5.860;2022-10-19T06:42:08;9.06;91.49
65058;HTU21D;51644;51.068;5.860;2022-10-19T06:43:06;9.07;91.50
65058;HTU21D;51644;51.068;5.860;2022-10-19T06:44:05;9.11;91.44
65058;HTU21D;51644;51.068;5.860;2022-10-19T06:45:12;9.14;91.40
65058;HTU21D;51644;51.068;5.860;2022-10-19T06:46:14;9.15;91.42
65058;HTU21D;51644;51.068;5.860;2022-10-19T06:47:14;9.15;91.32